WIMM

Medan / Polonia International Airport

Medan-Sumatra Island, Indonesia
TAF WIMM 181700Z 1818/1918 VRB03KT 5000 HZ SCT018 BECMG 1902/1904 05010KT 9999 FEW017CB SCT018 BECMG 1912/1914 VRB03KT 5000 HZ
Issued Valid From Valid To
Jul-18 @ 17:00 UTC
(5 hours ago)
Jul-18 @ 18:00 UTC
(4 hours ago)
Jul-19 @ 18:00 UTC
(in 20 hours)
Jul-18 @ 18:00 to Jul-19 @ 02:00
TAF WIMM 181700Z 1818/1918 VRB03KT 5000 HZ SCT018
Wind Visibility Clouds Conditions
Variable at 3 knots 5,005 meters
  • Scattered at 1,800' AGL
  • Haze
Becoming Jul-19 @ 02:00 to Jul-19 @ 12:00
BECMG 1902/1904 05010KT 9999 FEW017CB SCT018
Wind Visibility Clouds Conditions
50° at 10 knots 10,000+ meters
  • Few at 1,700' AGL
  • Scattered at 1,800' AGL
  • Haze
Becoming Jul-19 @ 12:00 to Jul-19 @ 18:00
BECMG 1912/1914 VRB03KT 5000 HZ
Wind Visibility Clouds Conditions
Variable at 3 knots 5,005 meters
  • Few at 1,700' AGL
  • Scattered at 1,800' AGL
  • Haze
TAF WIMM 181700Z 1818/1918 VRB03KT 5000 HZ SCT018 BECMG 1902/1904 05010KT 9999 FEW017CB SCT018 BECMG 1912/1914 VRB03KT 5000 HZ
Issued Jul-18 @ 17:00 UTC
(5 hours ago)
Valid From Jul-18 @ 18:00 UTC
(4 hours ago)
Valid To Jul-19 @ 18:00 UTC
(in 20 hours)
Jul-18 @ 18:00 - Jul-19 @ 02:00
Wind Visibility
Variable at 3 knots 5,005 meters
Clouds
  • Scattered at 1,800' AGL
Conditions
  • Haze
Becoming Jul-19 @ 02:00 - Jul-19 @ 12:00
Wind Visibility
50° at 10 knots 10,000+ meters
Clouds
  • Few at 1,700' AGL
  • Scattered at 1,800' AGL
Conditions
  • Haze
Becoming Jul-19 @ 12:00 - Jul-19 @ 18:00
Wind Visibility
Variable at 3 knots 5,005 meters
Clouds
  • Few at 1,700' AGL
  • Scattered at 1,800' AGL
Conditions
  • Haze